Time;durP1;ratioP1;P1;durP2;ratioP2;P2;SDS_P1;SDS_P2;PMS_P1;PMS_P2;Temp;Humidity;BMP_temperature;BMP_pressure;BME280_temperature;BME280_humidity;BME280_pressure;Samples;Min_cycle;Max_cycle;Signal;HPM_P1;HPM_P2
2021/08/02 00:00:08;;;;;;;36.15;12.55;;;;;;;;;;5104532;28;20108;-75
2021/08/02 00:02:36;;;;;;;43.38;13.52;;;;;;;;;;5095967;28;20138;-75
2021/08/02 00:05:02;;;;;;;32.25;12.90;;;;;;;;;;5096242;28;20122;-76
2021/08/02 00:07:28;;;;;;;48.08;13.70;;;;;;;;;;5099673;28;20032;-75
2021/08/02 00:09:54;;;;;;;33.97;13.20;;;;;;;;;;5116493;28;20034;-75
2021/08/02 00:12:26;;;;;;;37.22;13.25;;;;;;;;;;5116359;28;20444;-75
2021/08/02 00:14:52;;;;;;;52.88;14.40;;;;;;;;;;5116378;28;20422;-75
2021/08/02 00:17:17;;;;;;;41.28;13.18;;;;;;;;;;5116203;28;20095;-75
2021/08/02 00:19:43;;;;;;;33.17;12.80;;;;;;;;;;5111200;28;20024;-75
2021/08/02 00:22:08;;;;;;;43.22;14.23;;;;;;;;;;5101564;28;20169;-75
2021/08/02 00:24:35;;;;;;;44.38;14.00;;;;;;;;;;5116043;28;20058;-76
2021/08/02 00:27:01;;;;;;;44.45;12.88;;;;;;;;;;5116171;27;20019;-75
2021/08/02 00:29:28;;;;;;;34.35;11.77;;;;;;;;;;5116055;28;20036;-76
2021/08/02 00:31:54;;;;;;;33.05;12.05;;;;;;;;;;5115969;28;20027;-75
2021/08/02 00:34:19;;;;;;;58.15;14.32;;;;;;;;;;5115425;27;20022;-76
2021/08/02 00:36:47;;;;;;;46.08;14.00;;;;;;;;;;5100293;28;20031;-76
2021/08/02 00:39:13;;;;;;;33.72;11.65;;;;;;;;;;5106198;28;20032;-75
2021/08/02 00:41:41;;;;;;;30.15;11.95;;;;;;;;;;5115667;28;20421;-76
2021/08/02 00:44:18;;;;;;;38.92;12.85;;;;;;;;;;5104524;28;20032;-76
2021/08/02 00:46:47;;;;;;;40.88;13.50;;;;;;;;;;5099093;28;20059;-76
2021/08/02 00:49:13;;;;;;;30.45;11.52;;;;;;;;;;5105909;28;20365;-77
2021/08/02 00:51:41;;;;;;;37.40;12.98;;;;;;;;;;5104224;28;20028;-75
2021/08/02 00:54:07;;;;;;;33.00;12.38;;;;;;;;;;5095220;28;20049;-75
2021/08/02 00:56:34;;;;;;;46.47;13.73;;;;;;;;;;5095123;28;20078;-75
2021/08/02 00:59:00;;;;;;;38.60;13.02;;;;;;;;;;5094970;28;20383;-75
2021/08/02 01:01:26;;;;;;;47.97;14.60;;;;;;;;;;5094916;28;20016;-75
2021/08/02 01:03:53;;;;;;;46.50;13.77;;;;;;;;;;5095124;28;20042;-75
2021/08/02 01:06:19;;;;;;;42.13;14.15;;;;;;;;;;5094889;28;20039;-75
2021/08/02 01:08:47;;;;;;;40.08;13.57;;;;;;;;;;5093640;28;20414;-75
2021/08/02 01:11:13;;;;;;;44.15;12.93;;;;;;;;;;5103311;28;20035;-76
2021/08/02 01:13:39;;;;;;;55.80;15.25;;;;;;;;;;5115237;28;20114;-75
2021/08/02 01:16:06;;;;;;;42.67;13.50;;;;;;;;;;5115247;28;20051;-75
2021/08/02 01:18:32;;;;;;;47.08;14.02;;;;;;;;;;5115063;28;20027;-75
2021/08/02 01:21:01;;;;;;;33.70;12.48;;;;;;;;;;5115150;28;20048;-75
2021/08/02 01:23:27;;;;;;;35.17;12.18;;;;;;;;;;5114818;28;20399;-75
2021/08/02 01:25:54;;;;;;;42.55;14.50;;;;;;;;;;5107720;27;20039;-75
2021/08/02 01:28:19;;;;;;;36.15;13.43;;;;;;;;;;5105243;28;20530;-75
2021/08/02 01:30:48;;;;;;;41.17;13.55;;;;;;;;;;5114967;28;20031;-75
2021/08/02 01:33:14;;;;;;;41.83;13.05;;;;;;;;;;5114822;28;20059;-75
2021/08/02 01:35:40;;;;;;;36.20;13.60;;;;;;;;;;5108392;28;20040;-75
2021/08/02 01:38:06;;;;;;;39.63;13.57;;;;;;;;;;5094082;28;20027;-76
2021/08/02 01:40:31;;;;;;;35.33;13.55;;;;;;;;;;5099259;28;20034;-76
2021/08/02 01:42:57;;;;;;;45.58;13.63;;;;;;;;;;5114534;28;20040;-75
2021/08/02 01:45:23;;;;;;;37.47;12.65;;;;;;;;;;5113778;28;20023;-75
2021/08/02 01:48:07;;;;;;;26.13;6.88;;;;;;;;;;5113778;28;20047;-75
2021/08/02 01:50:45;;;;;;;18.67;6.20;;;;;;;;;;5103950;28;20027;-75
2021/08/02 01:53:16;;;;;;;24.58;6.18;;;;;;;;;;5104013;28;20031;-75
2021/08/02 01:55:45;;;;;;;28.67;8.00;;;;;;;;;;5101611;28;20032;-75
2021/08/02 01:58:10;;;;;;;29.13;7.60;;;;;;;;;;5114183;28;20031;-75
2021/08/02 02:00:41;;;;;;;27.85;7.13;;;;;;;;;;5114237;28;20107;-75
2021/08/02 02:03:21;;;;;;;32.85;7.20;;;;;;;;;;5114154;28;20036;-75
2021/08/02 02:05:57;;;;;;;31.63;7.75;;;;;;;;;;5113942;28;20074;-76
2021/08/02 02:08:25;;;;;;;1528.10;766.80;;;;;;;;;;5110593;28;20407;-75
2021/08/02 02:10:55;;;;;;;1999.90;999.90;;;;;;;;;;5093515;28;20472;-75
2021/08/02 02:13:46;;;;;;;34.35;12.35;;;;;;;;;;5093748;28;20062;-76
2021/08/02 02:16:13;;;;;;;50.00;13.38;;;;;;;;;;5090481;28;20063;-75
2021/08/02 02:18:40;;;;;;;39.38;12.32;;;;;;;;;;5093707;28;20089;-75
2021/08/02 02:21:06;;;;;;;37.13;13.13;;;;;;;;;;5098363;28;20036;-75
2021/08/02 02:23:31;;;;;;;34.55;11.80;;;;;;;;;;5113812;28;20039;-75
2021/08/02 02:25:57;;;;;;;45.70;13.30;;;;;;;;;;5114109;28;20036;-75
2021/08/02 02:28:22;;;;;;;34.40;12.63;;;;;;;;;;5113818;28;20027;-77
2021/08/02 02:30:48;;;;;;;37.58;12.85;;;;;;;;;;5114245;28;20487;-76
2021/08/02 02:33:15;;;;;;;33.22;12.95;;;;;;;;;;5099364;28;20028;-75
2021/08/02 02:35:42;;;;;;;36.92;12.68;;;;;;;;;;5093529;28;20020;-75
2021/08/02 02:38:11;;;;;;;32.67;11.48;;;;;;;;;;5093484;28;20024;-75
2021/08/02 02:40:43;;;;;;;32.45;11.95;;;;;;;;;;5093456;28;20035;-75
2021/08/02 02:43:09;;;;;;;40.78;9.73;;;;;;;;;;5101000;28;20043;-75
2021/08/02 02:45:34;;;;;;;25.02;7.63;;;;;;;;;;5104993;28;20036;-75
2021/08/02 02:48:00;;;;;;;34.58;10.07;;;;;;;;;;5105888;28;20019;-75
2021/08/02 02:50:27;;;;;;;36.45;9.13;;;;;;;;;;5113701;28;20028;-75
2021/08/02 02:52:53;;;;;;;26.45;8.45;;;;;;;;;;5113659;28;20036;-76
2021/08/02 02:55:18;;;;;;;33.38;9.27;;;;;;;;;;5113717;28;20099;-77
2021/08/02 02:57:43;;;;;;;30.52;9.18;;;;;;;;;;5116300;28;20144;-75
2021/08/02 03:00:09;;;;;;;32.35;8.50;;;;;;;;;;5117947;28;20035;-75
2021/08/02 03:02:35;;;;;;;30.73;8.80;;;;;;;;;;5114622;28;20471;-75
2021/08/02 03:05:01;;;;;;;32.85;9.20;;;;;;;;;;5097016;28;20097;-75
2021/08/02 03:07:29;;;;;;;29.20;9.20;;;;;;;;;;5096913;28;20035;-76
2021/08/02 03:09:55;;;;;;;27.83;9.27;;;;;;;;;;5096571;28;20028;-76
2021/08/02 03:12:20;;;;;;;26.65;8.30;;;;;;;;;;5096766;28;20028;-75
2021/08/02 03:14:46;;;;;;;33.58;9.43;;;;;;;;;;5097038;28;20036;-75
2021/08/02 03:17:11;;;;;;;27.08;8.60;;;;;;;;;;5097174;28;20024;-75
2021/08/02 03:19:37;;;;;;;26.98;8.50;;;;;;;;;;5096976;28;20028;-75
2021/08/02 03:22:17;;;;;;;25.15;8.57;;;;;;;;;;5097158;28;20052;-75
2021/08/02 03:24:45;;;;;;;28.40;8.85;;;;;;;;;;5095729;28;20099;-76
2021/08/02 03:27:22;;;;;;;28.08;8.45;;;;;;;;;;5117280;28;20035;-75
2021/08/02 03:29:49;;;;;;;44.40;10.65;;;;;;;;;;5117356;28;20027;-75
2021/08/02 03:32:16;;;;;;;23.88;8.85;;;;;;;;;;5117223;28;20111;-76
2021/08/02 03:34:41;;;;;;;27.08;9.35;;;;;;;;;;5117239;28;20011;-75
2021/08/02 03:37:10;;;;;;;34.53;9.77;;;;;;;;;;5098357;28;20024;-75
2021/08/02 03:39:35;;;;;;;34.95;9.75;;;;;;;;;;5096610;28;20075;-75
2021/08/02 03:42:01;;;;;;;36.05;9.25;;;;;;;;;;5096632;28;20055;-75
2021/08/02 03:44:27;;;;;;;40.50;10.00;;;;;;;;;;5096197;28;20103;-75
2021/08/02 03:46:53;;;;;;;27.48;9.07;;;;;;;;;;5098634;28;20074;-75
2021/08/02 03:49:18;;;;;;;39.28;9.55;;;;;;;;;;5116760;28;20452;-75
2021/08/02 03:51:44;;;;;;;36.72;9.30;;;;;;;;;;5116725;28;20032;-75
2021/08/02 03:54:10;;;;;;;32.75;9.68;;;;;;;;;;5115683;28;20509;-75
2021/08/02 03:56:35;;;;;;;32.83;9.77;;;;;;;;;;5111322;28;20110;-75
2021/08/02 03:59:01;;;;;;;31.63;9.32;;;;;;;;;;5104915;28;20028;-75
2021/08/02 04:01:26;;;;;;;37.95;9.35;;;;;;;;;;5103680;28;20054;-76
2021/08/02 04:03:51;;;;;;;48.42;11.02;;;;;;;;;;5102789;28;20027;-75
2021/08/02 04:06:16;;;;;;;22.92;8.63;;;;;;;;;;5115255;28;20026;-76
2021/08/02 04:08:42;;;;;;;27.08;9.45;;;;;;;;;;5115552;28;20063;-76
2021/08/02 04:11:07;;;;;;;45.47;11.35;;;;;;;;;;5116623;28;20043;-75
2021/08/02 04:13:33;;;;;;;36.15;9.98;;;;;;;;;;5116293;28;20080;-75
2021/08/02 04:15:58;;;;;;;38.33;10.85;;;;;;;;;;5116419;28;20031;-75
2021/08/02 04:18:24;;;;;;;36.10;11.48;;;;;;;;;;5116336;28;20033;-76
2021/08/02 04:20:49;;;;;;;34.63;10.95;;;;;;;;;;5115986;28;20066;-75
2021/08/02 04:23:14;;;;;;;44.58;12.27;;;;;;;;;;5116160;27;20501;-75
2021/08/02 04:25:40;;;;;;;35.75;11.43;;;;;;;;;;5104921;28;20460;-75
2021/08/02 04:28:05;;;;;;;50.90;11.63;;;;;;;;;;5095799;28;20028;-76
2021/08/02 04:30:30;;;;;;;36.55;10.73;;;;;;;;;;5095927;28;20035;-76
2021/08/02 04:32:55;;;;;;;40.00;10.90;;;;;;;;;;5105631;28;20016;-76
2021/08/02 04:35:21;;;;;;;36.47;11.13;;;;;;;;;;5112024;28;20031;-77
2021/08/02 04:37:46;;;;;;;39.13;10.98;;;;;;;;;;5108434;28;20391;-76
2021/08/02 04:40:12;;;;;;;25.33;10.55;;;;;;;;;;5115629;28;20073;-76
2021/08/02 04:42:37;;;;;;;37.05;11.57;;;;;;;;;;5115772;28;20036;-75
2021/08/02 04:45:04;;;;;;;34.20;11.10;;;;;;;;;;5115806;28;20373;-76
2021/08/02 04:47:29;;;;;;;61.25;12.88;;;;;;;;;;5115795;28;20128;-76
2021/08/02 04:49:54;;;;;;;45.80;12.10;;;;;;;;;;5115404;28;20497;-76
2021/08/02 04:52:19;;;;;;;26.60;10.60;;;;;;;;;;5115614;28;20031;-76
2021/08/02 04:54:45;;;;;;;33.17;10.70;;;;;;;;;;5115292;28;20098;-76
2021/08/02 04:57:10;;;;;;;30.48;11.43;;;;;;;;;;5103997;28;20089;-76
2021/08/02 04:59:35;;;;;;;27.63;10.40;;;;;;;;;;5095058;28;20032;-76
2021/08/02 05:02:01;;;;;;;24.05;9.90;;;;;;;;;;5094864;28;20024;-76
2021/08/02 05:04:26;;;;;;;26.08;9.90;;;;;;;;;;5094986;28;20028;-77
2021/08/02 05:06:51;;;;;;;30.38;10.30;;;;;;;;;;5094764;28;20032;-76
2021/08/02 05:09:17;;;;;;;29.10;9.43;;;;;;;;;;5094860;28;20027;-76
2021/08/02 05:11:42;;;;;;;23.48;9.50;;;;;;;;;;5094917;28;20028;-76
2021/08/02 05:14:07;;;;;;;26.05;8.73;;;;;;;;;;5094912;28;20028;-77
2021/08/02 05:16:33;;;;;;;21.27;9.25;;;;;;;;;;5094789;28;20375;-76
2021/08/02 05:18:58;;;;;;;24.08;8.98;;;;;;;;;;5095401;28;20085;-76
2021/08/02 05:21:23;;;;;;;31.98;10.20;;;;;;;;;;5094693;28;20044;-77
2021/08/02 05:23:48;;;;;;;28.67;10.18;;;;;;;;;;5094600;28;20042;-76
2021/08/02 05:26:14;;;;;;;33.95;10.15;;;;;;;;;;5094649;28;20417;-76
2021/08/02 05:28:39;;;;;;;27.60;9.77;;;;;;;;;;5094581;28;20469;-76
2021/08/02 05:31:04;;;;;;;26.75;9.70;;;;;;;;;;5094571;28;20054;-76
2021/08/02 05:33:30;;;;;;;36.03;9.95;;;;;;;;;;5094502;28;20020;-76
2021/08/02 05:35:55;;;;;;;26.75;10.20;;;;;;;;;;5094403;28;20426;-76
2021/08/02 05:38:20;;;;;;;27.50;9.85;;;;;;;;;;5104737;28;20027;-76
2021/08/02 05:40:45;;;;;;;26.95;9.25;;;;;;;;;;5094982;28;20031;-76
2021/08/02 05:43:11;;;;;;;26.55;8.85;;;;;;;;;;5109198;28;20546;-76
2021/08/02 05:45:36;;;;;;;24.35;8.95;;;;;;;;;;5114364;28;20023;-76
2021/08/02 05:48:01;;;;;;;27.92;9.02;;;;;;;;;;5114307;28;20071;-75
2021/08/02 05:50:28;;;;;;;22.45;9.13;;;;;;;;;;5114486;28;20051;-77
2021/08/02 05:52:53;;;;;;;25.60;9.13;;;;;;;;;;5114611;28;20028;-76
2021/08/02 05:55:18;;;;;;;21.58;8.52;;;;;;;;;;5114094;28;20027;-77
2021/08/02 05:57:44;;;;;;;26.15;8.50;;;;;;;;;;5097626;28;20375;-76
2021/08/02 06:00:10;;;;;;;29.15;9.27;;;;;;;;;;5114424;28;20015;-76
2021/08/02 06:02:35;;;;;;;21.15;7.90;;;;;;;;;;5103938;28;20047;-76
2021/08/02 06:05:00;;;;;;;30.38;9.23;;;;;;;;;;5094081;28;20488;-77
2021/08/02 06:07:25;;;;;;;23.92;8.55;;;;;;;;;;5093826;28;20043;-76
2021/08/02 06:09:51;;;;;;;26.75;8.45;;;;;;;;;;5093984;28;20198;-76
2021/08/02 06:12:16;;;;;;;27.98;10.25;;;;;;;;;;5093898;28;20376;-77
2021/08/02 06:14:42;;;;;;;27.63;9.63;;;;;;;;;;5093787;28;20024;-77
2021/08/02 06:17:07;;;;;;;36.00;10.35;;;;;;;;;;5102952;28;20110;-76
2021/08/02 06:19:32;;;;;;;39.00;10.90;;;;;;;;;;5113735;28;20027;-76
2021/08/02 06:21:57;;;;;;;31.23;9.80;;;;;;;;;;5111274;28;20040;-76
2021/08/02 06:24:23;;;;;;;33.00;12.95;;;;;;;;;;5100673;28;20043;-77
2021/08/02 06:26:48;;;;;;;1999.90;999.90;;;;;;;;;;5107680;28;20494;-76
2021/08/02 06:29:14;;;;;;;1999.90;999.90;;;;;;;;;;5114002;28;20026;-76
2021/08/02 06:31:39;;;;;;;1999.90;999.90;;;;;;;;;;5113433;28;20070;-77
2021/08/02 06:34:04;;;;;;;1999.90;999.90;;;;;;;;;;5112662;28;20035;-77
2021/08/02 06:36:30;;;;;;;1999.90;999.90;;;;;;;;;;5100330;28;20516;-76
2021/08/02 06:38:55;;;;;;;1999.90;999.90;;;;;;;;;;5109684;28;20038;-77
2021/08/02 06:41:20;;;;;;;1999.90;999.90;;;;;;;;;;5113480;28;20036;-77
2021/08/02 06:43:46;;;;;;;1999.90;999.90;;;;;;;;;;5113664;28;20028;-77
2021/08/02 06:46:11;;;;;;;1999.90;999.90;;;;;;;;;;5113796;28;20070;-77
2021/08/02 06:48:37;;;;;;;1999.90;999.90;;;;;;;;;;5113765;28;20488;-76
2021/08/02 06:51:03;;;;;;;1999.90;999.90;;;;;;;;;;5108018;28;20035;-76
2021/08/02 06:53:28;;;;;;;1999.90;999.90;;;;;;;;;;5093947;28;20039;-77
2021/08/02 06:55:53;;;;;;;1999.90;999.90;;;;;;;;;;5103172;28;20094;-77
2021/08/02 06:58:18;;;;;;;1999.90;999.90;;;;;;;;;;5100526;28;20073;-77
2021/08/02 07:00:44;;;;;;;1999.90;999.90;;;;;;;;;;5093214;28;20464;-77
2021/08/02 07:03:10;;;;;;;1999.90;999.90;;;;;;;;;;5093288;28;20482;-76
2021/08/02 07:05:35;;;;;;;1999.90;999.90;;;;;;;;;;5094376;28;20375;-77
2021/08/02 07:08:00;;;;;;;1999.90;999.90;;;;;;;;;;5094459;28;20032;-77
2021/08/02 07:10:25;;;;;;;1999.90;999.90;;;;;;;;;;5094611;28;20027;-77
2021/08/02 07:12:51;;;;;;;1999.90;999.90;;;;;;;;;;5094794;28;20016;-77
2021/08/02 07:15:16;;;;;;;1999.90;999.90;;;;;;;;;;5093339;28;20020;-77
2021/08/02 07:17:42;;;;;;;631.40;214.73;;;;;;;;;;5093087;28;20043;-77
2021/08/02 07:20:07;;;;;;;225.95;62.13;;;;;;;;;;5092968;28;20095;-76
2021/08/02 07:22:32;;;;;;;55.40;18.83;;;;;;;;;;5092898;28;20063;-77
2021/08/02 07:24:58;;;;;;;57.83;20.02;;;;;;;;;;5092700;28;20077;-76
2021/08/02 07:27:23;;;;;;;80.13;22.10;;;;;;;;;;5093252;28;20035;-77
2021/08/02 07:29:48;;;;;;;38.65;16.77;;;;;;;;;;5093056;28;20031;-76
2021/08/02 07:32:14;;;;;;;63.25;19.30;;;;;;;;;;5093030;28;20089;-76
2021/08/02 07:34:39;;;;;;;60.60;20.08;;;;;;;;;;5092914;28;20043;-76
2021/08/02 07:37:04;;;;;;;52.65;17.67;;;;;;;;;;5093311;28;20145;-76
2021/08/02 07:39:30;;;;;;;56.58;19.67;;;;;;;;;;5092611;28;20086;-77
2021/08/02 07:41:56;;;;;;;45.72;18.23;;;;;;;;;;5092776;28;20024;-76
2021/08/02 07:44:21;;;;;;;41.17;15.43;;;;;;;;;;5094476;28;20063;-76
2021/08/02 07:46:46;;;;;;;30.15;13.80;;;;;;;;;;5096555;28;20040;-76
2021/08/02 07:49:12;;;;;;;111.90;23.00;;;;;;;;;;5096649;28;20024;-77
2021/08/02 07:51:37;;;;;;;29.67;13.50;;;;;;;;;;5096324;28;20028;-77
2021/08/02 07:54:03;;;;;;;102.85;19.70;;;;;;;;;;5096511;28;20028;-77
2021/08/02 07:56:29;;;;;;;17.02;10.35;;;;;;;;;;5096102;28;20452;-76
2021/08/02 07:58:55;;;;;;;19.67;10.32;;;;;;;;;;5095785;28;20383;-77
2021/08/02 08:01:20;;;;;;;17.77;9.07;;;;;;;;;;5095941;28;20027;-77
2021/08/02 08:03:45;;;;;;;15.90;8.60;;;;;;;;;;5096194;28;20050;-77
2021/08/02 08:06:10;;;;;;;14.90;8.80;;;;;;;;;;5096033;28;20426;-77
2021/08/02 08:08:36;;;;;;;15.98;8.50;;;;;;;;;;5096176;28;20056;-77
2021/08/02 08:11:01;;;;;;;17.85;8.80;;;;;;;;;;5095932;28;20488;-77
2021/08/02 08:13:26;;;;;;;14.02;8.43;;;;;;;;;;5095917;28;20028;-77
2021/08/02 08:15:52;;;;;;;14.73;8.80;;;;;;;;;;5095739;28;20035;-75
2021/08/02 08:18:17;;;;;;;12.93;7.50;;;;;;;;;;5096000;28;20027;-78
2021/08/02 08:20:42;;;;;;;10.60;6.40;;;;;;;;;;5095893;28;20131;-78
2021/08/02 08:23:07;;;;;;;10.75;7.10;;;;;;;;;;5095995;28;20055;-77
2021/08/02 08:25:33;;;;;;;12.20;6.15;;;;;;;;;;5072129;28;20031;-78
2021/08/02 08:27:58;;;;;;;12.10;7.05;;;;;;;;;;5069552;28;20155;-77
2021/08/02 08:30:24;;;;;;;10.20;6.95;;;;;;;;;;5091123;28;20089;-80
2021/08/02 08:32:50;;;;;;;11.73;6.63;;;;;;;;;;5091740;28;20020;-77
2021/08/02 08:35:15;;;;;;;10.80;6.28;;;;;;;;;;5090063;28;20491;-78
2021/08/02 08:37:41;;;;;;;9.02;6.28;;;;;;;;;;5091991;28;20035;-77
2021/08/02 08:40:07;;;;;;;9.13;5.80;;;;;;;;;;5092425;28;20913;-78
2021/08/02 08:42:33;;;;;;;12.07;5.38;;;;;;;;;;5091171;28;20040;-80
2021/08/02 08:44:59;;;;;;;10.85;6.72;;;;;;;;;;5091676;28;20388;-78
2021/08/02 08:47:24;;;;;;;10.40;7.32;;;;;;;;;;5090729;28;20053;-77
2021/08/02 08:49:49;;;;;;;9.98;7.05;;;;;;;;;;5093721;28;20102;-80
2021/08/02 08:52:15;;;;;;;9.27;6.75;;;;;;;;;;5085842;28;20258;-78
2021/08/02 08:54:42;;;;;;;12.27;6.65;;;;;;;;;;5092400;28;20027;-77
2021/08/02 08:57:11;;;;;;;10.90;6.50;;;;;;;;;;5083743;28;20028;-78
2021/08/02 08:59:52;;;;;;;10.45;6.50;;;;;;;;;;5067105;28;20054;-80
2021/08/02 09:02:25;;;;;;;7.50;6.00;;;;;;;;;;5078176;28;20040;-77
2021/08/02 09:04:54;;;;;;;10.68;5.70;;;;;;;;;;5097263;28;20036;-77
2021/08/02 09:07:20;;;;;;;7.80;6.05;;;;;;;;;;5090920;28;20024;-77
2021/08/02 09:09:45;;;;;;;10.85;5.78;;;;;;;;;;5092283;28;20027;-77
2021/08/02 09:12:14;;;;;;;9.15;5.57;;;;;;;;;;5092601;28;20376;-78
2021/08/02 09:14:52;;;;;;;7.50;5.63;;;;;;;;;;5089008;28;20020;-78
2021/08/02 09:17:31;;;;;;;10.18;6.60;;;;;;;;;;5091715;28;20032;-77
2021/08/02 09:19:57;;;;;;;12.23;6.70;;;;;;;;;;5091158;28;20077;-77
2021/08/02 09:22:30;;;;;;;11.00;7.22;;;;;;;;;;5090950;28;20136;-78
2021/08/02 09:25:15;;;;;;;9.50;6.78;;;;;;;;;;5091541;28;20405;-77
2021/08/02 09:27:41;;;;;;;9.85;6.00;;;;;;;;;;5090991;28;20032;-77
2021/08/02 09:30:13;;;;;;;8.45;5.82;;;;;;;;;;5091330;28;20110;-77
2021/08/02 09:33:08;;;;;;;6.70;5.63;;;;;;;;;;5091578;28;20066;-77
2021/08/02 09:35:38;;;;;;;8.23;6.32;;;;;;;;;;5073377;28;20464;-77
2021/08/02 09:38:04;;;;;;;9.07;5.20;;;;;;;;;;5091186;28;20073;-77
2021/08/02 09:40:37;;;;;;;8.38;5.40;;;;;;;;;;5091254;28;20031;-78
2021/08/02 09:43:03;;;;;;;8.02;5.93;;;;;;;;;;5091279;28;20085;-77
2021/08/02 09:45:38;;;;;;;23.70;6.72;;;;;;;;;;5091817;28;20100;-77
2021/08/02 09:48:03;;;;;;;9.50;5.90;;;;;;;;;;5090119;28;20043;-78
2021/08/02 09:50:29;;;;;;;9.57;6.40;;;;;;;;;;5088706;28;20024;-77
2021/08/02 09:52:55;;;;;;;11.45;6.40;;;;;;;;;;5088940;28;20020;-78
2021/08/02 09:55:21;;;;;;;10.40;5.45;;;;;;;;;;5089265;28;20051;-78
2021/08/02 09:57:50;;;;;;;8.25;5.70;;;;;;;;;;5090401;28;20850;-79
2021/08/02 10:00:16;;;;;;;7.05;4.97;;;;;;;;;;5090828;28;20424;-78
2021/08/02 10:02:42;;;;;;;8.43;5.78;;;;;;;;;;5092424;28;20126;-77
2021/08/02 10:05:09;;;;;;;7.93;5.72;;;;;;;;;;5092583;28;20486;-78
2021/08/02 10:07:34;;;;;;;8.98;4.85;;;;;;;;;;5093386;28;20212;-79
2021/08/02 10:10:00;;;;;;;7.35;6.15;;;;;;;;;;5098369;28;20407;-77
2021/08/02 10:12:25;;;;;;;8.32;5.47;;;;;;;;;;5089219;28;20028;-78
2021/08/02 10:14:54;;;;;;;7.82;5.70;;;;;;;;;;5088427;28;20395;-79
2021/08/02 10:17:19;;;;;;;7.22;4.72;;;;;;;;;;5088927;28;20031;-78
2021/08/02 10:19:50;;;;;;;9.43;5.85;;;;;;;;;;5086279;28;20027;-78
2021/08/02 10:22:16;;;;;;;7.35;5.32;;;;;;;;;;5088296;28;20044;-79
2021/08/02 10:24:46;;;;;;;92.95;55.75;;;;;;;;;;5088907;28;20192;-78
2021/08/02 10:27:11;;;;;;;1999.90;999.90;;;;;;;;;;5087130;28;20036;-79
2021/08/02 10:29:41;;;;;;;373.30;59.80;;;;;;;;;;5087968;28;20031;-78
2021/08/02 10:32:06;;;;;;;9.02;4.88;;;;;;;;;;5088577;28;20039;-78
2021/08/02 10:34:31;;;;;;;6.30;4.32;;;;;;;;;;5088321;28;20393;-79
2021/08/02 10:37:01;;;;;;;4.72;3.53;;;;;;;;;;5089614;28;20024;-78
2021/08/02 10:39:28;;;;;;;9.25;4.32;;;;;;;;;;5088696;28;20142;-78
2021/08/02 10:42:06;;;;;;;6.75;3.83;;;;;;;;;;5088302;28;20434;-78
2021/08/02 10:44:32;;;;;;;6.20;4.00;;;;;;;;;;5088737;28;20084;-84
2021/08/02 10:47:05;;;;;;;6.47;4.10;;;;;;;;;;5088932;28;20036;-79
2021/08/02 10:49:30;;;;;;;7.93;4.00;;;;;;;;;;5088874;28;20047;-78
2021/08/02 10:51:56;;;;;;;7.10;3.97;;;;;;;;;;5086860;28;20461;-78
2021/08/02 10:54:21;;;;;;;5.95;4.38;;;;;;;;;;5088083;28;20043;-78
2021/08/02 10:56:50;;;;;;;10.70;3.97;;;;;;;;;;5087053;28;20039;-78
2021/08/02 10:59:18;;;;;;;8.13;3.55;;;;;;;;;;5087629;28;20031;-79
2021/08/02 11:01:53;;;;;;;5.65;3.25;;;;;;;;;;5087060;28;20067;-78
2021/08/02 11:04:19;;;;;;;5.13;2.78;;;;;;;;;;5087771;28;20032;-77
2021/08/02 11:06:46;;;;;;;10.98;3.63;;;;;;;;;;5087794;28;20028;-77
2021/08/02 11:09:12;;;;;;;4.35;2.90;;;;;;;;;;5088028;28;20027;-78
2021/08/02 11:11:37;;;;;;;5.70;3.83;;;;;;;;;;5086013;28;20036;-78
2021/08/02 11:14:24;;;;;;;7.40;3.80;;;;;;;;;;5087721;28;20024;-77
2021/08/02 11:16:50;;;;;;;9.38;3.42;;;;;;;;;;5086872;28;20048;-78
2021/08/02 11:19:18;;;;;;;5.05;2.58;;;;;;;;;;5091472;28;20028;-78
2021/08/02 11:21:45;;;;;;;4.43;2.38;;;;;;;;;;5090727;28;20384;-77
2021/08/02 11:24:11;;;;;;;3.92;2.63;;;;;;;;;;5091241;28;20117;-78
2021/08/02 11:26:55;;;;;;;4.82;2.83;;;;;;;;;;5091133;28;20035;-80
2021/08/02 11:29:22;;;;;;;4.63;2.67;;;;;;;;;;5092427;28;20490;-78
2021/08/02 11:31:54;;;;;;;5.00;3.28;;;;;;;;;;5090038;28;20046;-79
2021/08/02 11:34:20;;;;;;;5.38;2.88;;;;;;;;;;5091066;28;20040;-78
2021/08/02 11:36:55;;;;;;;6.03;2.97;;;;;;;;;;5091137;28;20020;-79
2021/08/02 11:39:20;;;;;;;4.90;2.50;;;;;;;;;;5091085;28;20036;-79
2021/08/02 11:41:46;;;;;;;6.93;3.10;;;;;;;;;;5090023;28;20426;-79
2021/08/02 11:44:11;;;;;;;5.38;3.13;;;;;;;;;;5091103;28;20067;-78
2021/08/02 11:46:37;;;;;;;4.40;2.60;;;;;;;;;;5090038;28;20064;-78
2021/08/02 11:49:02;;;;;;;4.38;2.80;;;;;;;;;;5090912;28;20024;-78
2021/08/02 11:51:27;;;;;;;4.70;3.00;;;;;;;;;;5090490;28;20028;-79
2021/08/02 11:53:53;;;;;;;4.72;2.75;;;;;;;;;;5090537;28;20031;-77
2021/08/02 11:56:18;;;;;;;5.47;2.55;;;;;;;;;;5090826;28;20020;-77
2021/08/02 11:58:44;;;;;;;7.45;3.22;;;;;;;;;;5090106;28;20472;-78
2021/08/02 12:01:10;;;;;;;6.97;3.17;;;;;;;;;;5089406;28;20070;-79
2021/08/02 12:03:36;;;;;;;6.00;2.70;;;;;;;;;;5089087;28;20064;-78
2021/08/02 12:06:02;;;;;;;9.48;3.20;;;;;;;;;;5090029;28;20031;-77
2021/08/02 12:08:27;;;;;;;5.78;2.78;;;;;;;;;;5091047;28;20028;-78
2021/08/02 12:10:54;;;;;;;5.45;2.50;;;;;;;;;;5090938;28;20095;-77
2021/08/02 12:13:19;;;;;;;5.65;2.55;;;;;;;;;;5089874;28;20028;-77
2021/08/02 12:15:48;;;;;;;6.00;2.22;;;;;;;;;;5090133;28;20035;-78
2021/08/02 12:18:20;;;;;;;4.85;2.30;;;;;;;;;;5090648;28;20380;-77
2021/08/02 12:20:46;;;;;;;7.10;2.45;;;;;;;;;;5091108;28;20056;-78
2021/08/02 12:23:20;;;;;;;4.38;2.38;;;;;;;;;;5089125;28;20484;-77
2021/08/02 12:25:46;;;;;;;4.15;2.35;;;;;;;;;;5090978;28;20389;-77
2021/08/02 12:28:12;;;;;;;7.20;2.70;;;;;;;;;;5089395;28;20040;-78
2021/08/02 12:30:38;;;;;;;4.88;2.40;;;;;;;;;;5087290;28;20039;-77
2021/08/02 12:33:03;;;;;;;6.75;2.92;;;;;;;;;;5090867;28;20107;-77
2021/08/02 12:35:29;;;;;;;4.28;2.50;;;;;;;;;;5089077;28;20103;-77
2021/08/02 12:37:58;;;;;;;5.03;2.58;;;;;;;;;;5090322;28;20074;-78
2021/08/02 12:40:23;;;;;;;4.40;2.55;;;;;;;;;;5089895;28;20242;-77
2021/08/02 12:42:48;;;;;;;7.18;2.85;;;;;;;;;;5089516;28;20040;-77
2021/08/02 12:45:15;;;;;;;5.97;2.83;;;;;;;;;;5090547;28;20095;-77
2021/08/02 12:47:41;;;;;;;9.85;3.35;;;;;;;;;;5089635;28;20073;-78
2021/08/02 12:50:07;;;;;;;5.40;3.13;;;;;;;;;;5090581;28;20372;-77
2021/08/02 12:52:32;;;;;;;6.10;2.65;;;;;;;;;;5090103;28;20020;-79
2021/08/02 12:54:59;;;;;;;4.10;2.15;;;;;;;;;;5090525;28;20036;-77
2021/08/02 12:57:28;;;;;;;5.20;2.10;;;;;;;;;;5090068;28;20502;-78
2021/08/02 12:59:58;;;;;;;4.63;2.17;;;;;;;;;;5089832;28;20016;-78
2021/08/02 13:02:24;;;;;;;5.00;2.20;;;;;;;;;;5090486;28;20035;-78
2021/08/02 13:04:49;;;;;;;5.90;2.20;;;;;;;;;;5089348;28;20384;-77
2021/08/02 13:07:15;;;;;;;4.40;2.30;;;;;;;;;;5090152;28;20016;-79
2021/08/02 13:09:40;;;;;;;4.32;2.58;;;;;;;;;;5091088;28;20349;-77
2021/08/02 13:12:06;;;;;;;8.18;2.13;;;;;;;;;;5088881;28;20028;-76
2021/08/02 13:14:31;;;;;;;4.38;2.00;;;;;;;;;;5089855;28;20020;-77
2021/08/02 13:16:56;;;;;;;3.15;1.70;;;;;;;;;;5089154;28;20028;-77
2021/08/02 13:19:22;;;;;;;4.78;2.30;;;;;;;;;;5089445;28;20036;-77
2021/08/02 13:21:47;;;;;;;7.70;2.28;;;;;;;;;;5089735;28;20119;-81
2021/08/02 13:27:01;;;;;;;7.68;1.95;;;;;;;;;;5085793;28;20063;-77
2021/08/02 13:29:28;;;;;;;5.80;2.10;;;;;;;;;;5088599;28;20060;-77
2021/08/02 13:31:54;;;;;;;3.58;2.10;;;;;;;;;;5088761;28;20047;-77
2021/08/02 13:34:19;;;;;;;6.32;2.10;;;;;;;;;;5088686;28;20016;-77
2021/08/02 13:36:45;;;;;;;3.67;2.08;;;;;;;;;;5089440;28;20024;-77
2021/08/02 13:39:10;;;;;;;4.32;1.95;;;;;;;;;;5089036;28;20032;-77
2021/08/02 13:41:36;;;;;;;4.78;2.20;;;;;;;;;;5087594;28;20101;-77
2021/08/02 13:44:01;;;;;;;4.60;1.92;;;;;;;;;;5089177;28;20043;-76
2021/08/02 13:46:28;;;;;;;6.07;2.50;;;;;;;;;;5088829;28;20436;-77
2021/08/02 13:48:53;;;;;;;4.82;2.13;;;;;;;;;;5089535;28;20050;-77
2021/08/02 13:51:19;;;;;;;3.67;1.92;;;;;;;;;;5089663;28;20062;-77
2021/08/02 13:53:44;;;;;;;5.38;1.67;;;;;;;;;;5088241;28;20040;-77
2021/08/02 13:56:10;;;;;;;3.85;2.00;;;;;;;;;;5089105;28;20376;-76
2021/08/02 13:58:37;;;;;;;4.50;2.00;;;;;;;;;;5087949;28;20035;-77
2021/08/02 14:01:02;;;;;;;4.80;2.10;;;;;;;;;;5089568;28;20039;-77
2021/08/02 14:03:27;;;;;;;3.53;2.33;;;;;;;;;;5104879;28;20036;-77
2021/08/02 14:05:52;;;;;;;10.30;1.92;;;;;;;;;;5109033;28;20055;-77
2021/08/02 14:08:18;;;;;;;3.85;2.00;;;;;;;;;;5100216;28;20472;-77
2021/08/02 14:10:43;;;;;;;3.67;1.70;;;;;;;;;;5089817;28;20091;-77
2021/08/02 14:13:10;;;;;;;4.72;1.67;;;;;;;;;;5087744;28;20085;-77
2021/08/02 14:15:39;;;;;;;2.15;1.58;;;;;;;;;;5089504;28;20481;-77
2021/08/02 14:18:05;;;;;;;5.28;2.42;;;;;;;;;;5088669;28;20023;-77
2021/08/02 14:20:32;;;;;;;5.18;2.03;;;;;;;;;;5088444;28;20121;-76
2021/08/02 14:22:57;;;;;;;3.25;1.85;;;;;;;;;;5091631;28;20041;-77
2021/08/02 14:25:23;;;;;;;3.92;1.98;;;;;;;;;;5094835;28;20090;-77